createdAt,value
2019-02-27T00:02:25.319Z,20.47
2019-02-27T00:06:37.753Z,20.37
2019-02-27T00:10:50.056Z,21.67
2019-02-27T00:15:04.903Z,21.30
2019-02-27T00:19:16.765Z,21.10
2019-02-27T00:23:29.156Z,22.40
2019-02-27T00:27:41.468Z,21.73
2019-02-27T00:31:58.161Z,22.20
2019-02-27T00:36:12.231Z,25.63
2019-02-27T00:40:25.369Z,24.03
2019-02-27T00:44:37.789Z,26.17
2019-02-27T00:48:50.668Z,24.87
2019-02-27T00:53:03.124Z,25.87
2019-02-27T00:57:20.390Z,24.90
2019-02-27T01:01:30.317Z,24.67
2019-02-27T01:05:42.732Z,25.83
2019-02-27T01:09:55.525Z,25.43
2019-02-27T01:14:08.090Z,24.63
2019-02-27T01:18:20.490Z,25.60
2019-02-27T01:22:33.446Z,25.73
2019-02-27T01:26:45.937Z,25.13
2019-02-27T01:30:58.320Z,24.50
2019-02-27T01:35:11.406Z,24.97
2019-02-27T01:39:23.797Z,26.03
2019-02-27T01:43:36.912Z,25.83
2019-02-27T01:47:50.329Z,25.67
2019-02-27T01:52:04.460Z,26.67
2019-02-27T01:56:16.831Z,26.93
2019-02-27T02:00:29.626Z,26.27
2019-02-27T02:04:42.085Z,28.80
2019-02-27T02:09:30.670Z,28.33
2019-02-27T02:14:21.653Z,30.43
2019-02-27T02:18:51.447Z,31.67
2019-02-27T02:23:28.566Z,31.93
2019-02-27T02:28:08.404Z,34.60
2019-02-27T02:32:52.503Z,33.80
2019-02-27T02:37:43.743Z,36.03
2019-02-27T02:42:16.541Z,34.47
2019-02-27T02:47:33.469Z,37.27
2019-02-27T02:51:54.632Z,36.63
2019-02-27T02:56:41.983Z,35.33
2019-02-27T03:01:15.233Z,36.63
2019-02-27T03:05:59.936Z,34.77
2019-02-27T03:10:22.445Z,36.00
2019-02-27T03:15:11.119Z,35.63
2019-02-27T03:19:42.500Z,34.20
2019-02-27T03:24:29.297Z,36.87
2019-02-27T03:29:27.904Z,34.40
2019-02-27T03:34:34.179Z,36.80
2019-02-27T03:39:11.785Z,37.03
2019-02-27T03:43:59.317Z,35.90
2019-02-27T03:48:27.536Z,37.40
2019-02-27T03:53:28.453Z,36.60
2019-02-27T03:57:57.230Z,36.73
2019-02-27T04:02:59.244Z,36.00
2019-02-27T04:07:54.758Z,38.77
2019-02-27T04:12:07.156Z,38.33
2019-02-27T04:16:19.572Z,39.77
2019-02-27T04:20:32.353Z,38.67
2019-02-27T04:24:44.816Z,37.97
2019-02-27T04:28:57.861Z,35.50
2019-02-27T04:33:10.549Z,36.30
2019-02-27T04:37:23.515Z,38.37
2019-02-27T04:41:36.113Z,37.57
2019-02-27T04:45:48.523Z,37.37
2019-02-27T04:50:01.304Z,39.77
2019-02-27T04:54:13.764Z,37.77
2019-02-27T04:58:26.286Z,38.13
2019-02-27T05:02:39.143Z,37.90
2019-02-27T05:06:51.527Z,39.57
2019-02-27T05:11:05.784Z,37.83
2019-02-27T05:15:18.361Z,37.60
2019-02-27T05:19:30.821Z,36.97
2019-02-27T05:23:43.237Z,37.20
2019-02-27T05:27:56.021Z,35.90
2019-02-27T05:32:08.633Z,35.30
2019-02-27T05:36:21.564Z,36.00
2019-02-27T05:40:34.024Z,33.40
2019-02-27T05:44:46.345Z,33.90
2019-02-27T05:48:59.222Z,34.57
2019-02-27T05:53:11.685Z,33.60
2019-02-27T05:57:24.088Z,35.30
2019-02-27T06:01:38.190Z,36.17
2019-02-27T06:05:51.350Z,34.63
2019-02-27T06:10:04.272Z,35.00
2019-02-27T06:14:21.208Z,32.50
2019-02-27T06:18:30.583Z,35.10
2019-02-27T06:22:43.462Z,33.73
2019-02-27T06:26:55.968Z,32.67
2019-02-27T06:31:09.565Z,32.13
2019-02-27T06:35:22.059Z,31.23
2019-02-27T06:39:34.988Z,30.93
2019-02-27T06:43:47.317Z,30.40
2019-02-27T06:47:59.627Z,30.57
2019-02-27T06:52:12.314Z,29.90
2019-02-27T06:56:24.768Z,30.43
2019-02-27T07:00:37.291Z,30.07
2019-02-27T07:04:50.076Z,29.20
2019-02-27T07:09:02.599Z,30.13
2019-02-27T07:13:14.849Z,29.53
2019-02-27T07:17:29.220Z,30.40
2019-02-27T07:21:41.628Z,28.67
2019-02-27T07:25:54.044Z,28.17
2019-02-27T07:30:07.397Z,28.77
2019-02-27T07:34:20.781Z,28.87
2019-02-27T07:38:33.288Z,27.77
2019-02-27T07:42:46.065Z,27.00
2019-02-27T07:46:58.481Z,28.03
2019-02-27T07:51:11.514Z,30.53
2019-02-27T07:55:26.111Z,29.73
2019-02-27T07:59:38.732Z,32.03
2019-02-27T08:03:51.413Z,30.47
2019-02-27T08:08:03.825Z,30.53
2019-02-27T08:12:17.556Z,29.73
2019-02-27T08:16:30.609Z,32.07
2019-02-27T08:20:43.612Z,29.20
2019-02-27T08:24:56.282Z,28.57
2019-02-27T08:29:09.258Z,28.47
2019-02-27T08:33:21.953Z,27.10
2019-02-27T08:37:34.969Z,27.07
2019-02-27T08:41:48.709Z,26.40
2019-02-27T08:46:02.485Z,26.57
2019-02-27T08:50:16.324Z,27.90
2019-02-27T08:54:32.236Z,29.30
2019-02-27T08:58:42.759Z,28.50
2019-02-27T09:02:55.932Z,29.80
2019-02-27T09:07:08.398Z,28.80
2019-02-27T09:11:21.281Z,26.77
2019-02-27T09:15:33.647Z,25.60
2019-02-27T09:19:46.624Z,25.67
2019-02-27T09:23:59.080Z,25.43
2019-02-27T09:28:11.296Z,23.87
2019-02-27T09:32:24.350Z,25.33
2019-02-27T09:36:37.015Z,23.37
2019-02-27T09:40:50.121Z,21.97
2019-02-27T09:45:02.665Z,21.03
2019-02-27T09:49:15.488Z,21.80
2019-02-27T09:53:28.045Z,20.33
2019-02-27T09:57:40.369Z,20.90
2019-02-27T10:01:53.349Z,21.77
2019-02-27T10:06:08.759Z,20.90
2019-02-27T10:10:20.549Z,18.80
2019-02-27T10:14:33.198Z,18.70
2019-02-27T10:18:45.610Z,18.87
2019-02-27T10:22:58.502Z,17.63
2019-02-27T10:27:11.061Z,17.77
2019-02-27T10:31:26.137Z,17.43
2019-02-27T10:35:39.803Z,16.67
2019-02-27T10:39:52.097Z,15.80
2019-02-27T10:44:05.079Z,18.23
2019-02-27T10:48:17.620Z,17.90
2019-02-27T10:52:30.428Z,18.33
2019-02-27T10:56:42.976Z,19.47
2019-02-27T11:00:57.995Z,21.00
2019-02-27T11:05:09.883Z,17.73
2019-02-27T11:09:31.627Z,18.00
2019-02-27T11:13:44.003Z,19.60
2019-02-27T11:17:56.969Z,17.97
2019-02-27T11:22:10.692Z,16.20
2019-02-27T11:26:23.287Z,16.03
2019-02-27T11:30:39.465Z,16.33
2019-02-27T11:34:52.023Z,15.13
2019-02-27T11:39:05.692Z,15.90
2019-02-27T11:43:18.349Z,15.63
2019-02-27T11:47:30.808Z,15.77
2019-02-27T11:51:43.864Z,14.83
2019-02-27T11:55:56.459Z,15.23
2019-02-27T12:00:10.096Z,15.00
2019-02-27T12:04:22.513Z,15.23
2019-02-27T12:08:35.410Z,15.53
2019-02-27T12:12:47.974Z,16.10
2019-02-27T12:17:00.278Z,17.23
2019-02-27T12:21:13.230Z,16.77
2019-02-27T12:25:27.831Z,16.90
2019-02-27T12:29:40.465Z,16.50
2019-02-27T12:33:52.908Z,16.93
2019-02-27T12:38:08.226Z,15.30
2019-02-27T12:42:20.368Z,17.10
2019-02-27T12:46:34.183Z,15.60
2019-02-27T12:50:47.324Z,15.83
2019-02-27T12:55:01.870Z,15.33
2019-02-27T12:59:14.692Z,15.00
2019-02-27T13:03:27.179Z,16.37
2019-02-27T13:07:42.192Z,14.73
2019-02-27T13:11:53.974Z,15.90
2019-02-27T13:16:07.711Z,16.17
2019-02-27T13:20:21.989Z,17.63
2019-02-27T13:24:34.764Z,16.73
2019-02-27T13:28:48.837Z,16.57
2019-02-27T13:33:02.208Z,17.77
2019-02-27T13:37:15.141Z,16.43
2019-02-27T13:41:27.798Z,16.57
2019-02-27T13:45:40.621Z,16.87
2019-02-27T13:49:53.184Z,17.27
2019-02-27T13:54:05.702Z,17.83
2019-02-27T13:58:18.488Z,16.43
2019-02-27T14:02:30.939Z,16.20
2019-02-27T14:06:46.471Z,16.57
2019-02-27T14:10:58.129Z,16.57
2019-02-27T14:15:11.465Z,16.60
2019-02-27T14:19:24.428Z,16.33
2019-02-27T14:23:37.493Z,16.67
2019-02-27T14:27:49.837Z,17.33
2019-02-27T14:32:02.613Z,16.70
2019-02-27T14:36:15.161Z,16.57
2019-02-27T14:40:27.647Z,16.87
2019-02-27T14:44:40.488Z,18.53
2019-02-27T14:48:53.205Z,19.03
2019-02-27T14:53:06.133Z,19.43
2019-02-27T14:57:18.653Z,20.00
2019-02-27T15:01:31.473Z,18.23
2019-02-27T15:05:45.278Z,18.20
2019-02-27T15:09:57.875Z,19.07
2019-02-27T15:14:10.188Z,25.00
2019-02-27T15:18:23.164Z,25.47
2019-02-27T15:22:35.693Z,23.50
2019-02-27T15:26:50.459Z,23.93
2019-02-27T15:31:02.496Z,21.03
2019-02-27T15:35:15.609Z,21.70
2019-02-27T15:39:28.445Z,23.07
2019-02-27T15:43:40.957Z,21.37
2019-02-27T15:47:53.377Z,21.77
2019-02-27T15:52:07.043Z,21.07
2019-02-27T15:56:20.192Z,21.50
2019-02-27T16:00:33.137Z,21.77
2019-02-27T16:04:45.845Z,20.77
2019-02-27T16:08:58.479Z,21.00
2019-02-27T16:13:11.176Z,20.70
2019-02-27T16:17:23.592Z,19.30
2019-02-27T16:21:36.581Z,19.03
2019-02-27T16:25:52.779Z,19.40
2019-02-27T16:30:03.180Z,19.00
2019-02-27T16:34:15.986Z,18.93
2019-02-27T16:38:31.734Z,19.07
2019-02-27T16:42:43.241Z,19.67
2019-02-27T16:46:55.834Z,18.40
2019-02-27T16:51:08.832Z,18.47
2019-02-27T16:55:22.049Z,18.13
2019-02-27T16:59:34.720Z,18.30
2019-02-27T17:03:52.582Z,16.90
2019-02-27T17:08:02.633Z,17.17
2019-02-27T17:12:16.056Z,18.60
2019-02-27T17:16:28.945Z,18.03
2019-02-27T17:20:45.922Z,18.27
2019-02-27T17:24:56.680Z,15.23
2019-02-27T17:29:09.564Z,17.60
2019-02-27T17:33:22.197Z,16.00
2019-02-27T17:37:37.390Z,15.90
2019-02-27T17:41:49.682Z,15.40
2019-02-27T17:46:02.516Z,15.00
2019-02-27T17:50:15.203Z,15.63
2019-02-27T17:54:31.340Z,17.23
2019-02-27T17:58:42.157Z,18.87
2019-02-27T18:02:54.641Z,18.97
2019-02-27T18:07:09.172Z,19.07
2019-02-27T18:11:21.548Z,16.47
2019-02-27T18:15:33.957Z,20.23
2019-02-27T18:19:47.424Z,17.60
2019-02-27T18:24:00.749Z,16.13
2019-02-27T18:28:13.243Z,17.13
2019-02-27T18:32:26.035Z,16.83
2019-02-27T18:36:42.779Z,15.37
2019-02-27T18:40:52.981Z,17.10
2019-02-27T18:45:05.749Z,19.77
2019-02-27T18:49:19.238Z,20.73
2019-02-27T18:53:32.358Z,21.57
2019-02-27T18:57:47.226Z,19.90
2019-02-27T19:01:59.098Z,21.23
2019-02-27T19:06:12.239Z,19.57
2019-02-27T19:10:25.586Z,19.37
2019-02-27T19:14:39.586Z,18.63
2019-02-27T19:18:52.281Z,20.50
2019-02-27T19:23:04.691Z,19.70
2019-02-27T19:27:18.348Z,18.63
2019-02-27T19:31:31.665Z,20.63
2019-02-27T19:35:44.075Z,20.00
2019-02-27T19:39:57.143Z,20.50
2019-02-27T19:44:09.756Z,20.33
2019-02-27T19:48:22.865Z,24.53
2019-02-27T19:52:35.290Z,22.57
2019-02-27T19:56:47.697Z,23.30
2019-02-27T20:01:00.488Z,25.30
2019-02-27T20:05:12.950Z,26.40
2019-02-27T20:09:25.534Z,23.57
2019-02-27T20:13:39.056Z,18.87
2019-02-27T20:17:51.449Z,20.30
2019-02-27T20:22:04.400Z,19.37
2019-02-27T20:26:20.059Z,19.27
2019-02-27T20:30:30.917Z,18.13
2019-02-27T20:34:45.928Z,18.20
2019-02-27T20:38:57.857Z,15.80
2019-02-27T20:43:10.855Z,16.10
2019-02-27T20:47:23.582Z,18.90
2019-02-27T20:51:39.829Z,20.50
2019-02-27T20:55:50.627Z,22.67
2019-02-27T21:00:02.966Z,27.57
2019-02-27T21:04:15.839Z,25.33
2019-02-27T21:08:28.391Z,25.43
2019-02-27T21:12:42.832Z,16.73
2019-02-27T21:16:55.169Z,19.77
2019-02-27T21:21:06.797Z,23.13
2019-02-27T21:25:19.404Z,24.07
2019-02-27T21:29:31.927Z,24.83
2019-02-27T21:33:45.695Z,18.77
2019-02-27T21:37:58.636Z,16.87
2019-02-27T21:42:11.234Z,16.30
2019-02-27T21:46:24.243Z,15.83
2019-02-27T21:50:39.544Z,16.90
2019-02-27T21:54:50.687Z,15.50
2019-02-27T21:59:04.902Z,14.83
2019-02-27T22:03:17.563Z,15.07
2019-02-27T22:07:32.899Z,14.77
2019-02-27T22:11:45.060Z,15.37
2019-02-27T22:15:57.941Z,14.33
2019-02-27T22:20:10.561Z,14.87
2019-02-27T22:24:23.396Z,12.27
2019-02-27T22:28:35.970Z,12.27
2019-02-27T22:32:48.957Z,11.80
2019-02-27T22:37:01.506Z,11.40
2019-02-27T22:41:13.986Z,9.97
2019-02-27T22:45:26.877Z,9.83
2019-02-27T22:49:40.659Z,9.23
2019-02-27T22:53:52.907Z,8.53
2019-02-27T22:58:06.476Z,7.80
2019-02-27T23:02:21.625Z,8.10
2019-02-27T23:06:33.853Z,8.47
2019-02-27T23:10:47.293Z,8.77
2019-02-27T23:14:59.790Z,9.13
2019-02-27T23:19:13.132Z,8.43
2019-02-27T23:23:26.073Z,7.67
2019-02-27T23:27:39.859Z,9.07
2019-02-27T23:31:54.843Z,10.03
2019-02-27T23:36:06.848Z,9.47
2019-02-27T23:40:22.145Z,9.23
2019-02-27T23:44:38.779Z,9.73
2019-02-27T23:48:52.385Z,8.77
2019-02-27T23:53:05.154Z,9.20
2019-02-27T23:57:17.577Z,9.00
